createdAt,value
2023-04-16T00:00:09.468Z,12.16
2023-04-16T00:01:12.391Z,12.18
2023-04-16T00:02:14.990Z,12.21
2023-04-16T00:03:17.137Z,12.19
2023-04-16T00:04:19.237Z,12.18
2023-04-16T00:05:21.115Z,12.17
2023-04-16T00:06:23.409Z,12.16
2023-04-16T00:07:25.237Z,12.16
2023-04-16T00:08:26.995Z,12.14
2023-04-16T00:09:28.861Z,12.14
2023-04-16T00:10:30.668Z,12.17
2023-04-16T00:11:32.378Z,12.16
2023-04-16T00:12:34.141Z,12.15
2023-04-16T00:13:35.865Z,12.12
2023-04-16T00:14:37.710Z,12.08
2023-04-16T00:15:39.431Z,11.81
2023-04-16T00:16:41.174Z,12.01
2023-04-16T00:17:42.943Z,12.03
2023-04-16T00:18:44.708Z,12.03
2023-04-16T00:19:46.699Z,12.07
2023-04-16T00:20:48.898Z,11.99
2023-04-16T00:21:51.114Z,12.03
2023-04-16T00:22:52.855Z,12.03
2023-04-16T00:23:54.682Z,12.05
2023-04-16T00:24:56.566Z,12.06
2023-04-16T00:26:00.211Z,12.00
2023-04-16T00:27:02.206Z,12.04
2023-04-16T00:28:05.657Z,12.06
2023-04-16T00:29:07.504Z,12.10
2023-04-16T00:30:09.815Z,12.07
2023-04-16T00:31:11.595Z,12.11
2023-04-16T00:32:13.466Z,12.05
2023-04-16T00:33:15.942Z,12.09
2023-04-16T00:34:17.681Z,12.12
2023-04-16T00:35:19.573Z,12.12
2023-04-16T00:36:21.399Z,12.15
2023-04-16T00:37:24.926Z,12.16
2023-04-16T00:38:30.536Z,12.15
2023-04-16T00:39:32.228Z,12.18
2023-04-16T00:40:33.995Z,12.16
2023-04-16T00:41:35.804Z,12.20
2023-04-16T00:42:38.264Z,12.21
2023-04-16T00:43:40.023Z,12.19
2023-04-16T00:44:41.721Z,12.23
2023-04-16T00:45:43.521Z,12.23
2023-04-16T00:46:46.167Z,12.21
2023-04-16T00:47:47.997Z,12.16
2023-04-16T00:48:51.748Z,12.18
2023-04-16T00:49:53.571Z,12.21
2023-04-16T00:50:56.084Z,12.24
2023-04-16T00:51:57.917Z,12.23
2023-04-16T00:52:59.700Z,12.24
2023-04-16T00:54:02.384Z,12.24
2023-04-16T00:55:06.756Z,12.27
2023-04-16T00:56:09.935Z,12.26
2023-04-16T00:57:14.837Z,12.28
2023-04-16T00:58:17.174Z,12.28
2023-04-16T00:59:18.897Z,12.27
2023-04-16T01:00:21.473Z,12.30
2023-04-16T01:01:23.259Z,12.31
2023-04-16T01:02:25.660Z,12.31
2023-04-16T01:03:37.573Z,12.30
2023-04-16T01:04:39.513Z,12.22
2023-04-16T01:05:41.289Z,12.29
2023-04-16T01:06:43.156Z,12.19
2023-04-16T01:07:44.916Z,12.27
2023-04-16T01:08:48.097Z,12.26
2023-04-16T01:09:49.780Z,12.24
2023-04-16T01:10:51.482Z,12.22
2023-04-16T01:11:53.199Z,12.19
2023-04-16T01:12:54.919Z,12.20
2023-04-16T01:13:56.638Z,12.13
2023-04-16T01:14:58.539Z,12.12
2023-04-16T01:16:01.586Z,12.10
2023-04-16T01:17:04.255Z,12.17
2023-04-16T01:18:19.324Z,12.17
2023-04-16T01:19:21.072Z,12.16
2023-04-16T01:20:22.872Z,12.16
2023-04-16T01:21:24.571Z,12.18
2023-04-16T01:22:27.867Z,12.17
2023-04-16T01:23:29.821Z,12.15
2023-04-16T01:24:32.225Z,12.18
2023-04-16T01:25:33.956Z,12.17
2023-04-16T01:26:35.732Z,12.14
2023-04-16T01:27:37.762Z,12.17
2023-04-16T01:28:39.498Z,12.18
2023-04-16T01:29:41.350Z,12.17
2023-04-16T01:30:43.106Z,12.21
2023-04-16T01:31:46.821Z,12.21
2023-04-16T01:32:48.816Z,12.19
2023-04-16T01:33:50.742Z,12.12
2023-04-16T01:34:52.436Z,12.18
2023-04-16T01:35:54.132Z,12.18
2023-04-16T01:36:55.905Z,12.19
2023-04-16T01:37:57.597Z,12.20
2023-04-16T01:38:59.334Z,12.19
2023-04-16T01:40:01.116Z,12.17
2023-04-16T01:41:02.880Z,12.13
2023-04-16T01:42:04.640Z,12.11
2023-04-16T01:43:06.350Z,12.12
2023-04-16T01:44:08.075Z,12.13
2023-04-16T01:45:10.116Z,12.10
2023-04-16T01:46:20.580Z,12.10
2023-04-16T01:47:22.546Z,12.07
2023-04-16T01:48:24.263Z,12.05
2023-04-16T01:49:26.054Z,12.05
2023-04-16T01:50:28.505Z,12.08
2023-04-16T01:51:30.324Z,12.09
2023-04-16T01:52:32.121Z,12.09
2023-04-16T01:53:36.538Z,12.10
2023-04-16T01:54:38.851Z,12.10
2023-04-16T01:55:40.534Z,12.08
2023-04-16T01:56:42.274Z,12.07
2023-04-16T01:57:43.979Z,12.08
2023-04-16T01:58:48.524Z,12.07
2023-04-16T01:59:50.254Z,12.07
2023-04-16T02:00:51.967Z,12.09
2023-04-16T02:01:54.210Z,12.06
2023-04-16T02:02:56.289Z,12.07
2023-04-16T02:03:58.474Z,12.09
2023-04-16T02:05:00.258Z,12.08
2023-04-16T02:06:02.096Z,12.09
2023-04-16T02:07:04.662Z,12.04
2023-04-16T02:08:06.519Z,12.07
2023-04-16T02:09:08.591Z,12.08
2023-04-16T02:10:10.503Z,12.10
2023-04-16T02:11:12.248Z,12.09
2023-04-16T02:12:14.127Z,12.08
2023-04-16T02:13:16.758Z,12.05
2023-04-16T02:14:18.632Z,12.05
2023-04-16T02:15:20.557Z,12.04
2023-04-16T02:16:22.336Z,12.02
2023-04-16T02:17:24.175Z,11.97
2023-04-16T02:18:25.965Z,11.97
2023-04-16T02:19:27.708Z,11.96
2023-04-16T02:20:29.457Z,11.93
2023-04-16T02:21:31.954Z,11.94
2023-04-16T02:22:33.746Z,11.93
2023-04-16T02:23:35.708Z,11.92
2023-04-16T02:24:37.437Z,11.91
2023-04-16T02:25:41.368Z,11.79
2023-04-16T02:26:43.175Z,11.87
2023-04-16T02:27:44.885Z,11.90
2023-04-16T02:28:46.580Z,11.68
2023-04-16T02:29:48.304Z,11.86
2023-04-16T02:30:50.034Z,11.84
2023-04-16T02:31:51.953Z,11.82
2023-04-16T02:32:53.709Z,11.83
2023-04-16T02:33:55.412Z,11.78
2023-04-16T02:34:57.284Z,11.81
2023-04-16T02:35:59.031Z,11.77
2023-04-16T02:37:00.963Z,11.76
2023-04-16T02:38:04.267Z,11.72
2023-04-16T02:39:06.057Z,11.70
2023-04-16T02:40:08.520Z,11.68
2023-04-16T02:41:10.235Z,11.63
2023-04-16T02:42:11.978Z,11.60
2023-04-16T02:43:13.703Z,11.57
2023-04-16T02:44:15.844Z,11.49
2023-04-16T02:45:17.618Z,11.50
2023-04-16T02:46:19.408Z,11.42
2023-04-16T02:47:21.205Z,11.44
2023-04-16T02:48:23.095Z,11.41
2023-04-16T02:49:24.842Z,11.38
2023-04-16T02:50:26.711Z,11.31
2023-04-16T02:51:29.235Z,11.33
2023-04-16T02:52:32.400Z,11.33
2023-04-16T02:53:34.679Z,11.34
2023-04-16T02:54:36.479Z,11.34
2023-04-16T02:55:38.141Z,11.31
2023-04-16T02:56:39.851Z,11.33
2023-04-16T02:57:42.716Z,11.32
2023-04-16T02:58:44.456Z,11.29
2023-04-16T02:59:46.183Z,11.28
2023-04-16T03:00:48.172Z,11.20
2023-04-16T03:01:50.091Z,11.19
2023-04-16T03:02:51.990Z,11.20
2023-04-16T03:03:53.831Z,11.22
2023-04-16T03:04:55.706Z,11.20
2023-04-16T03:05:57.448Z,11.22
2023-04-16T03:06:59.162Z,11.19
2023-04-16T03:08:01.157Z,11.21
2023-04-16T03:09:02.921Z,11.24
2023-04-16T03:10:05.647Z,11.23
2023-04-16T03:11:07.688Z,11.23
2023-04-16T03:12:09.360Z,11.19
2023-04-16T03:13:11.091Z,11.23
2023-04-16T03:14:12.782Z,11.23
2023-04-16T03:15:14.498Z,11.22
2023-04-16T03:16:16.488Z,11.21
2023-04-16T03:17:18.362Z,11.19
2023-04-16T03:18:20.119Z,11.13
2023-04-16T03:19:21.812Z,11.13
2023-04-16T03:20:23.999Z,11.14
2023-04-16T03:21:26.004Z,11.11
2023-04-16T03:22:27.731Z,11.10
2023-04-16T03:23:29.488Z,11.03
2023-04-16T03:24:31.289Z,11.08
2023-04-16T03:25:33.039Z,11.08
2023-04-16T03:26:34.781Z,11.05
2023-04-16T03:27:36.487Z,11.12
2023-04-16T03:28:38.192Z,11.13
2023-04-16T03:29:40.045Z,11.15
2023-04-16T03:30:41.772Z,11.10
2023-04-16T03:31:43.503Z,11.14
2023-04-16T03:32:45.300Z,11.20
2023-04-16T03:33:47.000Z,11.21
2023-04-16T03:34:48.726Z,11.20
2023-04-16T03:35:59.708Z,11.20
2023-04-16T03:37:01.659Z,11.21
2023-04-16T03:38:03.343Z,11.21
2023-04-16T03:39:05.071Z,11.20
2023-04-16T03:40:07.498Z,11.20
2023-04-16T03:41:09.194Z,11.14
2023-04-16T03:42:11.040Z,11.16
2023-04-16T03:43:12.744Z,11.15
2023-04-16T03:44:14.442Z,11.13
2023-04-16T03:45:16.355Z,11.14
2023-04-16T03:46:18.154Z,11.14
2023-04-16T03:47:23.127Z,11.17
2023-04-16T03:48:24.820Z,11.18
2023-04-16T03:49:26.564Z,11.23
2023-04-16T03:50:28.312Z,11.21
2023-04-16T03:51:30.022Z,11.24
2023-04-16T03:52:31.726Z,11.25
2023-04-16T03:53:33.442Z,11.22
2023-04-16T03:54:35.173Z,11.25
2023-04-16T03:55:36.869Z,11.30
2023-04-16T03:56:40.476Z,11.30
2023-04-16T03:57:42.238Z,11.34
2023-04-16T03:58:43.921Z,11.37
2023-04-16T03:59:45.640Z,11.40
2023-04-16T04:00:47.634Z,11.47
2023-04-16T04:01:49.491Z,11.50
2023-04-16T04:02:51.364Z,11.48
2023-04-16T04:03:53.335Z,11.53
2023-04-16T04:04:55.218Z,11.56
2023-04-16T04:05:57.098Z,11.58
2023-04-16T04:06:58.859Z,11.63
2023-04-16T04:08:00.637Z,11.62
2023-04-16T04:09:02.516Z,11.68
2023-04-16T04:10:04.517Z,11.60
2023-04-16T04:11:06.199Z,11.73
2023-04-16T04:12:08.118Z,11.74
2023-04-16T04:13:10.335Z,11.79
2023-04-16T04:14:12.225Z,11.79
2023-04-16T04:15:14.307Z,11.79
2023-04-16T04:16:16.333Z,11.80
2023-04-16T04:17:18.203Z,11.72
2023-04-16T04:18:19.914Z,11.81
2023-04-16T04:19:21.599Z,11.80
2023-04-16T04:20:23.654Z,11.89
2023-04-16T04:21:26.031Z,11.92
2023-04-16T04:22:27.735Z,11.93
2023-04-16T04:23:29.457Z,11.94
2023-04-16T04:24:31.180Z,11.97
2023-04-16T04:25:32.905Z,12.01
2023-04-16T04:26:34.675Z,12.01
2023-04-16T04:27:36.705Z,11.99
2023-04-16T04:28:38.434Z,12.03
2023-04-16T04:29:40.126Z,12.05
2023-04-16T04:30:42.158Z,12.02
2023-04-16T04:31:43.916Z,12.09
2023-04-16T04:32:45.746Z,12.10
2023-04-16T04:33:47.467Z,12.05
2023-04-16T04:34:49.215Z,12.09
2023-04-16T04:35:51.165Z,12.13
2023-04-16T04:36:52.888Z,12.14
2023-04-16T04:37:54.602Z,12.14
2023-04-16T04:38:56.448Z,12.14
2023-04-16T04:39:58.224Z,12.13
2023-04-16T04:41:00.416Z,12.11
2023-04-16T04:42:03.442Z,12.13
2023-04-16T04:43:05.228Z,12.15
2023-04-16T04:44:07.103Z,12.16
2023-04-16T04:45:09.698Z,12.18
2023-04-16T04:46:11.537Z,12.15
2023-04-16T04:47:13.999Z,12.15
2023-04-16T04:48:16.230Z,12.08
2023-04-16T04:49:17.963Z,12.14
2023-04-16T04:50:19.862Z,12.12
2023-04-16T04:51:21.593Z,12.12
2023-04-16T04:52:23.314Z,12.09
2023-04-16T04:53:25.039Z,12.06
2023-04-16T04:54:26.782Z,12.09
2023-04-16T04:55:28.496Z,12.08
2023-04-16T04:56:30.251Z,12.11
2023-04-16T04:57:31.994Z,12.10
2023-04-16T04:58:33.744Z,12.14
2023-04-16T04:59:35.458Z,12.16
2023-04-16T05:00:37.321Z,12.15
2023-04-16T05:01:39.190Z,12.18
2023-04-16T05:02:41.211Z,12.16
2023-04-16T05:03:43.076Z,12.12
2023-04-16T05:04:44.905Z,12.26
2023-04-16T05:05:46.997Z,12.30
2023-04-16T05:06:48.765Z,12.29
2023-04-16T05:07:50.696Z,12.38
2023-04-16T05:08:52.446Z,12.36
2023-04-16T05:09:54.242Z,12.39
2023-04-16T05:10:56.025Z,12.42
2023-04-16T05:11:57.847Z,12.47
2023-04-16T05:12:59.625Z,12.48
2023-04-16T05:14:01.307Z,12.51
2023-04-16T05:15:03.166Z,12.50
2023-04-16T05:16:05.202Z,12.55
2023-04-16T05:17:08.104Z,12.60
2023-04-16T05:18:10.015Z,12.65
2023-04-16T05:19:11.975Z,12.69
2023-04-16T05:20:13.904Z,12.71
2023-04-16T05:21:15.674Z,12.76
2023-04-16T05:22:19.079Z,12.75
2023-04-16T05:23:20.816Z,12.82
2023-04-16T05:24:22.777Z,12.85
2023-04-16T05:25:24.508Z,12.86
2023-04-16T05:26:26.274Z,12.90
2023-04-16T05:27:28.046Z,12.91
2023-04-16T05:28:30.819Z,13.02
2023-04-16T05:29:32.584Z,13.09
2023-04-16T05:30:34.363Z,13.15
2023-04-16T05:31:36.211Z,13.25
2023-04-16T05:32:39.739Z,13.34
2023-04-16T05:33:41.475Z,13.49
2023-04-16T05:34:43.282Z,13.65
2023-04-16T05:35:44.962Z,13.73
2023-04-16T05:36:47.039Z,13.89
2023-04-16T05:37:48.735Z,14.17
2023-04-16T05:38:50.674Z,14.37
2023-04-16T05:39:52.382Z,14.59
2023-04-16T05:40:54.174Z,14.84
2023-04-16T05:41:55.870Z,15.13
2023-04-16T05:42:57.634Z,15.35
2023-04-16T05:43:59.345Z,15.71
2023-04-16T05:45:04.338Z,16.06
2023-04-16T05:46:06.086Z,16.37
2023-04-16T05:47:09.502Z,16.72
2023-04-16T05:48:11.451Z,17.11
2023-04-16T05:49:13.192Z,17.46
2023-04-16T05:50:15.030Z,17.80
2023-04-16T05:51:16.743Z,18.03
2023-04-16T05:52:18.448Z,18.34
2023-04-16T05:53:20.247Z,18.70
2023-04-16T05:54:22.047Z,19.04
2023-04-16T05:55:23.786Z,19.39
2023-04-16T05:56:25.637Z,19.68
2023-04-16T05:57:28.851Z,19.90
2023-04-16T05:58:30.611Z,20.13
2023-04-16T05:59:32.329Z,20.43
2023-04-16T06:00:34.183Z,20.72
2023-04-16T06:01:36.083Z,20.92
2023-04-16T06:02:38.081Z,21.12
2023-04-16T06:03:39.878Z,21.50
2023-04-16T06:04:41.738Z,21.68
2023-04-16T06:05:43.572Z,21.93
2023-04-16T06:06:45.316Z,22.08
2023-04-16T06:07:47.105Z,22.24
2023-04-16T06:08:48.815Z,22.33
2023-04-16T06:09:50.525Z,22.41
2023-04-16T06:10:52.293Z,22.72
2023-04-16T06:11:54.063Z,22.84
2023-04-16T06:12:55.752Z,22.93
2023-04-16T06:13:57.446Z,22.98
2023-04-16T06:15:00.597Z,23.00
2023-04-16T06:16:02.376Z,23.00
2023-04-16T06:17:04.083Z,23.09
2023-04-16T06:18:08.682Z,23.21
2023-04-16T06:19:10.740Z,23.45
2023-04-16T06:20:13.094Z,23.57
2023-04-16T06:21:14.991Z,23.71
2023-04-16T06:22:16.803Z,23.82
2023-04-16T06:23:18.510Z,23.87
2023-04-16T06:24:20.247Z,23.98
2023-04-16T06:25:22.104Z,23.98
2023-04-16T06:26:23.891Z,23.99
2023-04-16T06:27:26.078Z,24.11
2023-04-16T06:28:27.781Z,24.26
2023-04-16T06:29:40.690Z,24.56
2023-04-16T06:30:44.639Z,24.55
2023-04-16T06:31:46.756Z,24.52
2023-04-16T06:32:49.255Z,24.51
2023-04-16T06:33:50.986Z,24.72
2023-04-16T06:34:52.696Z,24.79
2023-04-16T06:35:54.395Z,24.95
2023-04-16T06:36:56.087Z,25.04
2023-04-16T06:37:57.861Z,25.10
2023-04-16T06:38:59.523Z,25.26
2023-04-16T06:40:01.506Z,25.39
2023-04-16T06:41:03.891Z,25.40
2023-04-16T06:42:05.637Z,25.58
2023-04-16T06:43:07.395Z,25.63
2023-04-16T06:44:09.125Z,25.74
2023-04-16T06:45:11.724Z,25.80
2023-04-16T06:46:13.510Z,25.99
2023-04-16T06:47:15.866Z,25.92
2023-04-16T06:48:17.747Z,25.90
2023-04-16T06:49:19.454Z,26.18
2023-04-16T06:50:22.377Z,26.56
2023-04-16T06:51:24.094Z,26.73
2023-04-16T06:52:25.912Z,26.80
2023-04-16T06:53:27.625Z,26.79
2023-04-16T06:54:29.348Z,26.73
2023-04-16T06:55:33.010Z,26.82
2023-04-16T06:56:35.937Z,26.57
2023-04-16T06:57:37.850Z,26.60
2023-04-16T06:58:39.545Z,26.87
2023-04-16T06:59:41.292Z,27.10
2023-04-16T07:00:43.106Z,27.15
2023-04-16T07:01:45.163Z,27.21
2023-04-16T07:02:47.104Z,27.24
2023-04-16T07:03:51.877Z,27.31
2023-04-16T07:04:53.814Z,27.54
2023-04-16T07:05:55.681Z,27.75
2023-04-16T07:06:57.410Z,27.85
2023-04-16T07:07:59.535Z,27.96
2023-04-16T07:09:01.317Z,28.10
2023-04-16T07:10:03.085Z,28.40
2023-04-16T07:11:05.222Z,28.58
2023-04-16T07:12:07.409Z,28.75
2023-04-16T07:13:09.132Z,28.83
2023-04-16T07:14:11.029Z,28.91
2023-04-16T07:15:12.795Z,28.96
2023-04-16T07:16:14.700Z,29.01
2023-04-16T07:17:16.502Z,29.02
2023-04-16T07:18:19.289Z,28.96
2023-04-16T07:19:22.335Z,28.69
2023-04-16T07:20:24.209Z,28.58
2023-04-16T07:21:26.322Z,28.56
2023-04-16T07:22:28.038Z,28.62
2023-04-16T07:23:30.118Z,28.63
2023-04-16T07:24:32.451Z,28.70
2023-04-16T07:25:34.167Z,28.66
2023-04-16T07:26:35.986Z,28.66
2023-04-16T07:27:37.679Z,28.75
2023-04-16T07:28:39.505Z,28.79
2023-04-16T07:29:41.331Z,28.78
2023-04-16T07:30:43.606Z,28.94
2023-04-16T07:31:45.951Z,28.95
2023-04-16T07:32:47.765Z,28.91
2023-04-16T07:33:49.554Z,28.96
2023-04-16T07:34:51.614Z,29.02
2023-04-16T07:35:53.384Z,29.07
2023-04-16T07:36:55.127Z,29.10
2023-04-16T07:37:56.826Z,28.98
2023-04-16T07:38:58.581Z,28.97
2023-04-16T07:40:00.918Z,28.81
2023-04-16T07:41:02.703Z,28.86
2023-04-16T07:42:04.494Z,28.94
2023-04-16T07:43:06.213Z,28.84
2023-04-16T07:44:08.257Z,28.68
2023-04-16T07:45:10.353Z,28.55
2023-04-16T07:46:12.045Z,28.07
2023-04-16T07:47:13.822Z,28.13
2023-04-16T07:48:15.611Z,28.10
2023-04-16T07:49:17.406Z,28.18
2023-04-16T07:50:19.643Z,28.33
2023-04-16T07:51:21.369Z,28.36
2023-04-16T07:52:23.090Z,28.14
2023-04-16T07:53:24.795Z,27.85
2023-04-16T07:54:28.869Z,27.75
2023-04-16T07:55:30.823Z,27.42
2023-04-16T07:56:32.605Z,27.29
2023-04-16T07:57:34.475Z,27.22
2023-04-16T07:58:36.212Z,27.20
2023-04-16T07:59:37.908Z,27.21
2023-04-16T08:00:39.968Z,27.06
2023-04-16T08:01:41.835Z,26.74
2023-04-16T08:02:43.997Z,26.47
2023-04-16T08:03:46.094Z,26.37
2023-04-16T08:04:48.134Z,26.37
2023-04-16T08:05:49.938Z,26.25
2023-04-16T08:06:52.067Z,26.20
2023-04-16T08:07:53.812Z,26.01
2023-04-16T08:08:56.243Z,25.92
2023-04-16T08:09:57.993Z,25.94
2023-04-16T08:11:00.220Z,25.85
2023-04-16T08:12:02.836Z,25.79
2023-04-16T08:13:04.596Z,25.30
2023-04-16T08:14:06.376Z,24.87
2023-04-16T08:15:08.438Z,24.90
2023-04-16T08:16:10.336Z,24.95
2023-04-16T08:17:12.973Z,24.93
2023-04-16T08:18:15.844Z,24.89
2023-04-16T08:19:17.668Z,24.85
2023-04-16T08:20:19.674Z,24.76
2023-04-16T08:21:22.059Z,24.52
2023-04-16T08:22:23.782Z,24.30
2023-04-16T08:23:25.492Z,23.91
2023-04-16T08:24:27.177Z,23.78
2023-04-16T08:25:28.931Z,23.60
2023-04-16T08:26:30.694Z,22.98
2023-04-16T08:27:32.382Z,22.82
2023-04-16T08:28:34.208Z,22.49
2023-04-16T08:29:35.951Z,22.32
2023-04-16T08:30:37.674Z,22.08
2023-04-16T08:31:39.525Z,21.87
2023-04-16T08:32:41.513Z,21.69
2023-04-16T08:33:43.451Z,21.53
2023-04-16T08:34:45.305Z,21.38
2023-04-16T08:35:47.160Z,20.91
2023-04-16T08:36:48.889Z,20.72
2023-04-16T08:37:50.644Z,20.68
2023-04-16T08:38:52.468Z,20.46
2023-04-16T08:39:54.268Z,20.23
2023-04-16T08:41:00.981Z,20.42
2023-04-16T08:42:05.763Z,20.29
2023-04-16T08:43:12.473Z,20.15
2023-04-16T08:44:26.429Z,20.35
2023-04-16T08:45:28.471Z,20.53
2023-04-16T08:46:31.680Z,20.65
2023-04-16T08:47:37.087Z,20.99
2023-04-16T08:48:38.930Z,21.27
2023-04-16T08:49:47.920Z,21.12
2023-04-16T08:50:52.946Z,21.05
2023-04-16T08:51:57.419Z,21.07
2023-04-16T08:53:03.959Z,21.35
2023-04-16T08:54:09.544Z,21.30
2023-04-16T08:55:16.996Z,21.33
2023-04-16T08:56:21.611Z,21.56
2023-04-16T08:57:27.281Z,21.95
2023-04-16T08:58:34.800Z,22.67
2023-04-16T08:59:37.415Z,23.20
2023-04-16T09:00:41.337Z,23.32
2023-04-16T09:01:45.752Z,23.54
2023-04-16T09:02:47.828Z,23.66
2023-04-16T09:03:50.093Z,24.04
2023-04-16T09:04:53.889Z,24.37
2023-04-16T09:05:59.309Z,24.54
2023-04-16T09:07:03.954Z,24.15
2023-04-16T09:08:07.057Z,24.36
2023-04-16T09:09:09.531Z,24.54
2023-04-16T09:10:12.320Z,24.87
2023-04-16T09:11:14.617Z,25.19
2023-04-16T09:12:17.504Z,25.42
2023-04-16T09:13:20.731Z,25.75
2023-04-16T09:14:22.634Z,26.11
2023-04-16T09:15:28.148Z,25.88
2023-04-16T09:16:34.219Z,25.75
2023-04-16T09:17:36.308Z,25.78
2023-04-16T09:18:38.105Z,25.66
2023-04-16T09:19:39.803Z,25.73
2023-04-16T09:20:41.510Z,25.28
2023-04-16T09:21:47.018Z,24.85
2023-04-16T09:22:48.998Z,24.60
2023-04-16T09:23:53.028Z,24.67
2023-04-16T09:24:54.714Z,24.51
2023-04-16T09:25:59.401Z,24.46
2023-04-16T09:27:01.302Z,24.64
2023-04-16T09:28:03.361Z,24.77
2023-04-16T09:29:05.143Z,24.86
2023-04-16T09:30:27.716Z,24.83
2023-04-16T09:31:29.681Z,24.87
2023-04-16T09:32:31.463Z,25.05
2023-04-16T09:33:34.997Z,24.69
2023-04-16T09:34:59.182Z,24.82
2023-04-16T09:36:06.186Z,25.01
2023-04-16T09:37:17.940Z,24.86
2023-04-16T09:38:20.544Z,24.43
2023-04-16T09:39:23.400Z,24.30
2023-04-16T09:40:27.504Z,24.28
2023-04-16T09:41:36.200Z,24.11
2023-04-16T09:42:38.087Z,24.04
2023-04-16T09:43:39.801Z,24.09
2023-04-16T09:44:41.488Z,24.31
2023-04-16T09:45:51.188Z,24.61
2023-04-16T09:46:53.019Z,24.82
2023-04-16T09:48:03.999Z,24.97
2023-04-16T09:49:10.651Z,25.07
2023-04-16T09:50:18.896Z,24.90
2023-04-16T09:51:20.940Z,25.18
2023-04-16T09:52:23.638Z,25.23
2023-04-16T09:53:29.604Z,25.43
2023-04-16T09:54:31.355Z,25.68
2023-04-16T09:55:33.274Z,25.74
2023-04-16T09:56:43.674Z,26.08
2023-04-16T09:57:45.521Z,26.38
2023-04-16T09:58:47.380Z,26.67
2023-04-16T09:59:53.480Z,26.73
2023-04-16T10:01:11.290Z,26.62
2023-04-16T10:02:15.319Z,26.49
2023-04-16T10:03:25.636Z,26.36
2023-04-16T10:04:28.493Z,25.81
2023-04-16T10:05:30.203Z,25.83
2023-04-16T10:06:31.947Z,26.02
2023-04-16T10:07:35.632Z,26.21
2023-04-16T10:08:37.347Z,26.30
2023-04-16T10:09:42.410Z,26.30
2023-04-16T10:10:45.128Z,26.29
2023-04-16T10:11:47.406Z,25.87
2023-04-16T10:12:49.118Z,25.60
2023-04-16T10:13:51.581Z,25.49
2023-04-16T10:14:53.474Z,25.66
2023-04-16T10:15:57.045Z,25.87
2023-04-16T10:16:59.658Z,26.03
2023-04-16T10:18:02.437Z,25.94
2023-04-16T10:19:04.921Z,25.91
2023-04-16T10:20:07.893Z,26.09
2023-04-16T10:21:12.809Z,26.16
2023-04-16T10:22:14.661Z,26.21
2023-04-16T10:23:16.457Z,26.23
2023-04-16T10:24:18.407Z,26.36
2023-04-16T10:25:20.496Z,26.57
2023-04-16T10:26:22.555Z,26.74
2023-04-16T10:27:27.119Z,26.62
2023-04-16T10:28:29.584Z,26.70
2023-04-16T10:29:32.409Z,26.59
2023-04-16T10:30:34.528Z,26.64
2023-04-16T10:31:38.809Z,26.68
2023-04-16T10:32:41.625Z,26.56
2023-04-16T10:33:44.547Z,26.59
2023-04-16T10:34:48.068Z,26.41
2023-04-16T10:36:07.263Z,26.03
2023-04-16T10:37:09.771Z,25.37
2023-04-16T10:38:28.491Z,25.22
2023-04-16T10:39:30.430Z,25.41
2023-04-16T10:40:32.186Z,25.50
2023-04-16T10:41:33.993Z,25.77
2023-04-16T10:42:35.770Z,25.92
2023-04-16T10:43:41.681Z,26.07
2023-04-16T10:44:45.389Z,26.28
2023-04-16T10:45:48.284Z,26.47
2023-04-16T10:46:50.106Z,26.16
2023-04-16T10:47:51.974Z,25.80
2023-04-16T10:48:55.181Z,25.77
2023-04-16T10:49:58.379Z,26.01
2023-04-16T10:51:01.145Z,26.18
2023-04-16T10:52:17.384Z,25.82
2023-04-16T10:53:20.356Z,25.45
2023-04-16T10:54:28.006Z,25.57
2023-04-16T10:55:29.708Z,25.79
2023-04-16T10:56:36.145Z,25.95
2023-04-16T10:57:37.883Z,26.15
2023-04-16T10:58:39.664Z,25.93
2023-04-16T10:59:43.671Z,25.94
2023-04-16T11:00:52.341Z,26.00
2023-04-16T11:01:56.628Z,26.35
2023-04-16T11:02:58.697Z,26.46
2023-04-16T11:04:02.413Z,26.37
2023-04-16T11:05:04.751Z,26.31
2023-04-16T11:06:17.685Z,25.49
2023-04-16T11:07:21.050Z,24.69
2023-04-16T11:08:24.236Z,24.26
2023-04-16T11:09:59.753Z,23.58
2023-04-16T11:11:04.953Z,23.57
2023-04-16T11:12:09.761Z,23.82
2023-04-16T11:13:13.112Z,24.06
2023-04-16T11:14:15.530Z,24.02
2023-04-16T11:15:21.497Z,23.91
2023-04-16T11:16:25.878Z,23.92
2023-04-16T11:17:53.730Z,23.91
2023-04-16T11:19:07.533Z,24.11
2023-04-16T11:20:22.242Z,24.23
2023-04-16T11:21:24.671Z,24.34
2023-04-16T11:22:27.374Z,24.49
2023-04-16T11:23:29.185Z,24.51
2023-04-16T11:24:33.957Z,24.30
2023-04-16T11:25:35.671Z,24.35
2023-04-16T11:26:37.384Z,24.25
2023-04-16T11:27:39.139Z,24.24
2023-04-16T11:28:40.923Z,24.00
2023-04-16T11:29:44.588Z,23.71
2023-04-16T11:30:47.540Z,23.42
2023-04-16T11:31:53.777Z,22.95
2023-04-16T11:32:55.839Z,22.92
2023-04-16T11:33:57.922Z,22.73
2023-04-16T11:35:03.883Z,22.26
2023-04-16T11:36:06.208Z,21.87
2023-04-16T11:37:07.986Z,21.72
2023-04-16T11:38:09.702Z,21.79
2023-04-16T11:39:11.791Z,21.54
2023-04-16T11:40:14.072Z,21.29
2023-04-16T11:41:22.062Z,21.13
2023-04-16T11:42:23.997Z,21.14
2023-04-16T11:43:26.776Z,21.20
2023-04-16T11:44:29.396Z,21.14
2023-04-16T11:45:31.307Z,21.17
2023-04-16T11:46:42.806Z,21.27
2023-04-16T11:47:56.915Z,21.16
2023-04-16T11:48:58.766Z,20.93
2023-04-16T11:50:33.514Z,20.69
2023-04-16T11:51:40.640Z,20.72
2023-04-16T11:52:42.371Z,20.56
2023-04-16T11:53:53.203Z,20.46
2023-04-16T11:54:55.469Z,20.19
2023-04-16T11:55:57.356Z,19.83
2023-04-16T11:56:59.152Z,19.94
2023-04-16T11:58:13.024Z,20.09
2023-04-16T11:59:19.096Z,20.17
2023-04-16T12:00:23.080Z,20.06
2023-04-16T12:01:26.773Z,19.97
2023-04-16T12:02:38.740Z,20.00
2023-04-16T12:03:47.155Z,19.95
2023-04-16T12:04:49.166Z,19.86
2023-04-16T12:05:50.948Z,19.82
2023-04-16T12:07:14.572Z,19.71
2023-04-16T12:08:29.181Z,19.41
2023-04-16T12:09:30.928Z,19.39
2023-04-16T12:10:37.934Z,18.97
2023-04-16T12:11:43.069Z,18.29
2023-04-16T12:12:47.915Z,17.99
2023-04-16T12:14:11.944Z,17.97
2023-04-16T12:15:13.771Z,17.66
2023-04-16T12:16:21.487Z,17.70
2023-04-16T12:17:24.550Z,17.70
2023-04-16T12:18:29.630Z,17.69
2023-04-16T12:19:31.382Z,17.43
2023-04-16T12:20:43.838Z,17.55
2023-04-16T12:21:48.226Z,17.62
2023-04-16T12:22:50.025Z,17.59
2023-04-16T12:23:53.971Z,17.71
2023-04-16T12:24:58.494Z,17.76
2023-04-16T12:26:10.741Z,17.91
2023-04-16T12:27:13.100Z,17.96
2023-04-16T12:28:16.597Z,18.01
2023-04-16T12:29:22.879Z,18.12
2023-04-16T12:30:31.070Z,18.13
2023-04-16T12:31:39.195Z,18.29
2023-04-16T12:32:42.554Z,18.37
2023-04-16T12:33:44.292Z,18.38
2023-04-16T12:34:52.100Z,18.37
2023-04-16T12:35:54.176Z,18.41
2023-04-16T12:37:10.692Z,18.45
2023-04-16T12:38:15.168Z,18.48
2023-04-16T12:39:17.333Z,18.49
2023-04-16T12:40:19.023Z,18.25
2023-04-16T12:41:20.726Z,18.11
2023-04-16T12:42:22.576Z,18.04
2023-04-16T12:43:24.516Z,18.01
2023-04-16T12:44:27.965Z,18.00
2023-04-16T12:45:29.781Z,17.99
2023-04-16T12:46:31.525Z,17.89
2023-04-16T12:47:33.427Z,17.82
2023-04-16T12:48:35.262Z,17.88
2023-04-16T12:49:37.605Z,18.09
2023-04-16T12:50:39.896Z,18.07
2023-04-16T12:51:42.292Z,18.14
2023-04-16T12:52:44.150Z,18.14
2023-04-16T12:53:46.014Z,18.09
2023-04-16T12:54:47.746Z,17.99
2023-04-16T12:55:49.521Z,17.91
2023-04-16T12:56:51.238Z,17.93
2023-04-16T12:57:53.229Z,18.05
2023-04-16T12:58:55.118Z,18.14
2023-04-16T12:59:57.771Z,18.27
2023-04-16T13:01:00.022Z,18.36
2023-04-16T13:02:02.949Z,18.40
2023-04-16T13:03:06.952Z,18.55
2023-04-16T13:04:09.477Z,18.72
2023-04-16T13:05:13.200Z,18.72
2023-04-16T13:06:16.186Z,18.85
2023-04-16T13:07:18.642Z,18.98
2023-04-16T13:08:20.789Z,19.03
2023-04-16T13:09:22.555Z,19.03
2023-04-16T13:10:24.466Z,19.06
2023-04-16T13:11:29.204Z,19.12
2023-04-16T13:12:32.766Z,19.14
2023-04-16T13:13:37.078Z,19.25
2023-04-16T13:14:39.463Z,19.38
2023-04-16T13:15:42.409Z,19.48
2023-04-16T13:16:44.142Z,19.55
2023-04-16T13:17:46.284Z,19.64
2023-04-16T13:18:48.104Z,19.74
2023-04-16T13:19:49.871Z,19.82
2023-04-16T13:20:52.100Z,19.83
2023-04-16T13:21:54.152Z,19.71
2023-04-16T13:22:55.992Z,19.78
2023-04-16T13:23:57.760Z,19.92
2023-04-16T13:24:59.493Z,20.04
2023-04-16T13:26:02.587Z,20.16
2023-04-16T13:27:04.469Z,20.27
2023-04-16T13:28:06.640Z,20.36
2023-04-16T13:29:08.627Z,20.52
2023-04-16T13:30:11.205Z,20.63
2023-04-16T13:31:13.015Z,20.74